createdAt,value
2023-01-07T00:00:52.705Z,96114.00
2023-01-07T00:04:55.527Z,96114.00
2023-01-07T00:08:59.231Z,96113.00
2023-01-07T00:13:03.485Z,96118.00
2023-01-07T00:17:06.388Z,96106.00
2023-01-07T00:21:11.868Z,96107.00
2023-01-07T00:25:14.771Z,96090.00
2023-01-07T00:29:19.553Z,96088.00
2023-01-07T00:33:22.563Z,96088.00
2023-01-07T00:37:42.766Z,96081.00
2023-01-07T00:42:07.498Z,96087.00
2023-01-07T00:46:14.631Z,96081.00
2023-01-07T00:50:17.626Z,96084.00
2023-01-07T00:54:20.418Z,96087.00
2023-01-07T00:58:25.973Z,96085.00
2023-01-07T01:02:30.788Z,96080.00
2023-01-07T01:06:33.676Z,96082.00
2023-01-07T01:10:36.526Z,96086.00
2023-01-07T01:14:39.351Z,96078.00
2023-01-07T01:18:44.879Z,96086.00
2023-01-07T01:22:48.035Z,96091.00
2023-01-07T01:26:50.877Z,96079.00
2023-01-07T01:30:55.939Z,96080.00
2023-01-07T01:35:03.285Z,96068.00
2023-01-07T01:39:06.385Z,96065.00
2023-01-07T01:43:27.765Z,96070.00
2023-01-07T01:47:35.697Z,96071.00
2023-01-07T01:51:43.331Z,96061.00
2023-01-07T01:55:50.459Z,96069.00
2023-01-07T01:59:53.927Z,96062.00
2023-01-07T02:03:57.700Z,96055.00
2023-01-07T02:08:02.376Z,96056.00
2023-01-07T02:12:12.898Z,96049.00
2023-01-07T02:16:22.770Z,96042.00
2023-01-07T02:20:40.311Z,96038.00
2023-01-07T02:25:07.778Z,96033.00
2023-01-07T02:29:32.156Z,96037.00
2023-01-07T02:33:45.265Z,96023.00
2023-01-07T02:37:59.016Z,96027.00
2023-01-07T02:42:08.520Z,96026.00
2023-01-07T02:46:20.526Z,96018.00
2023-01-07T02:50:24.878Z,96017.00
2023-01-07T02:54:30.962Z,96022.00
2023-01-07T02:58:58.159Z,96014.00
2023-01-07T03:03:26.587Z,96010.00
2023-01-07T03:07:42.656Z,96013.00
2023-01-07T03:11:52.006Z,96002.00
2023-01-07T03:16:03.227Z,95993.00
2023-01-07T03:20:08.573Z,95993.00
2023-01-07T03:24:12.869Z,95995.00
2023-01-07T03:28:19.793Z,95986.00
2023-01-07T03:32:27.091Z,95977.00
2023-01-07T03:36:35.036Z,95973.00
2023-01-07T03:40:39.704Z,95974.00
2023-01-07T03:44:44.533Z,95966.00
2023-01-07T03:48:49.350Z,95964.00
2023-01-07T03:52:53.446Z,95948.00
2023-01-07T03:57:00.030Z,95949.00
2023-01-07T04:01:03.047Z,95947.00
2023-01-07T04:05:06.768Z,95944.00
2023-01-07T04:09:09.662Z,95926.00
2023-01-07T04:13:14.109Z,95927.00
2023-01-07T04:17:20.167Z,95925.00
2023-01-07T04:21:23.484Z,95908.00
2023-01-07T04:25:26.318Z,95910.00
2023-01-07T04:29:32.253Z,95907.00
2023-01-07T04:33:35.879Z,95915.00
2023-01-07T04:37:39.036Z,95891.00
2023-01-07T04:41:42.334Z,95891.00
2023-01-07T04:45:46.646Z,95887.00
2023-01-07T04:49:51.776Z,95881.00
2023-01-07T04:53:57.403Z,95875.00
2023-01-07T04:58:01.219Z,95871.00
2023-01-07T05:02:06.657Z,95868.00
2023-01-07T05:06:10.382Z,95870.00
2023-01-07T05:10:14.622Z,95856.00
2023-01-07T05:14:17.982Z,95852.00
2023-01-07T05:18:22.400Z,95849.00
2023-01-07T05:22:25.539Z,95846.00
2023-01-07T05:26:29.009Z,95833.00
2023-01-07T05:30:32.022Z,95837.00
2023-01-07T05:34:36.611Z,95823.00
2023-01-07T05:38:39.639Z,95820.00
2023-01-07T05:42:43.615Z,95817.00
2023-01-07T05:46:46.765Z,95809.00
2023-01-07T05:50:50.959Z,95816.00
2023-01-07T05:54:53.745Z,95809.00
2023-01-07T05:58:56.536Z,95802.00
2023-01-07T06:02:59.414Z,95804.00
2023-01-07T06:07:03.655Z,95804.00
2023-01-07T06:11:07.779Z,95802.00
2023-01-07T06:15:11.522Z,95799.00
2023-01-07T06:19:14.467Z,95793.00
2023-01-07T06:23:18.675Z,95785.00
2023-01-07T06:27:21.524Z,95782.00
2023-01-07T06:31:24.366Z,95790.00
2023-01-07T06:35:27.400Z,95782.00
2023-01-07T06:39:31.606Z,95770.00
2023-01-07T06:43:34.460Z,95774.00
2023-01-07T06:47:37.351Z,95764.00
2023-01-07T06:51:40.205Z,95757.00
2023-01-07T06:55:48.960Z,95761.00
2023-01-07T06:59:51.688Z,95771.00
2023-01-07T07:03:54.502Z,95762.00
2023-01-07T07:07:57.334Z,95766.00
2023-01-07T07:12:01.545Z,95762.00
2023-01-07T07:16:04.434Z,95754.00
2023-01-07T07:20:08.518Z,95754.00
2023-01-07T07:24:11.782Z,95751.00
2023-01-07T07:28:17.089Z,95742.00
2023-01-07T07:32:19.934Z,95738.00
2023-01-07T07:36:22.780Z,95741.00
2023-01-07T07:40:25.571Z,95728.00
2023-01-07T07:44:29.763Z,95737.00
2023-01-07T07:48:32.574Z,95715.00
2023-01-07T07:52:35.431Z,95721.00
2023-01-07T07:56:38.169Z,95732.00
2023-01-07T08:00:42.548Z,95734.00
2023-01-07T08:04:45.380Z,95726.00
2023-01-07T08:08:48.193Z,95723.00
2023-01-07T08:12:51.538Z,95724.00
2023-01-07T08:16:55.795Z,95725.00
2023-01-07T08:20:58.669Z,95711.00
2023-01-07T08:25:01.663Z,95715.00
2023-01-07T08:29:04.764Z,95705.00
2023-01-07T08:33:09.457Z,95709.00
2023-01-07T08:37:12.321Z,95698.00
2023-01-07T08:41:15.096Z,95701.00
2023-01-07T08:45:17.954Z,95695.00
2023-01-07T08:49:22.216Z,95682.00
2023-01-07T08:53:25.159Z,95683.00
2023-01-07T08:57:27.994Z,95674.00
2023-01-07T09:01:30.968Z,95676.00
2023-01-07T09:05:35.467Z,95660.00
2023-01-07T09:09:38.861Z,95669.00
2023-01-07T09:13:41.699Z,95677.00
2023-01-07T09:17:44.497Z,95665.00
2023-01-07T09:21:48.646Z,95663.00
2023-01-07T09:25:51.423Z,95657.00
2023-01-07T09:29:54.642Z,95661.00
2023-01-07T09:33:57.516Z,95660.00
2023-01-07T09:38:01.797Z,95644.00
2023-01-07T09:42:09.070Z,95648.00
2023-01-07T09:46:13.119Z,95641.00
2023-01-07T09:50:25.231Z,95644.00
2023-01-07T09:54:33.847Z,95643.00
2023-01-07T09:58:38.027Z,95645.00
2023-01-07T10:02:51.191Z,95642.00
2023-01-07T10:07:04.133Z,95658.00
2023-01-07T10:11:22.221Z,95651.00
2023-01-07T10:15:39.605Z,95650.00
2023-01-07T10:19:48.749Z,95639.00
2023-01-07T10:23:57.506Z,95631.00
2023-01-07T10:28:06.692Z,95627.00
2023-01-07T10:32:15.028Z,95617.00
2023-01-07T10:36:23.744Z,95610.00
2023-01-07T10:40:35.119Z,95602.00
2023-01-07T10:45:07.089Z,95603.00
2023-01-07T10:49:27.963Z,95590.00
2023-01-07T10:53:43.923Z,95590.00
2023-01-07T10:57:48.924Z,95594.00
2023-01-07T11:01:55.923Z,95580.00
2023-01-07T11:06:04.408Z,95576.00
2023-01-07T11:10:08.816Z,95569.00
2023-01-07T11:14:14.987Z,95568.00
2023-01-07T11:18:22.630Z,95549.00
2023-01-07T11:22:34.556Z,95551.00
2023-01-07T11:26:37.388Z,95546.00
2023-01-07T11:30:40.175Z,95546.00
2023-01-07T11:34:52.663Z,95536.00
2023-01-07T11:39:11.154Z,95528.00
2023-01-07T11:43:23.964Z,95528.00
2023-01-07T11:47:26.860Z,95524.00
2023-01-07T11:51:41.065Z,95512.00
2023-01-07T11:55:57.270Z,95522.00
2023-01-07T12:00:17.252Z,95508.00
2023-01-07T12:04:24.846Z,95502.00
2023-01-07T12:08:29.085Z,95506.00
2023-01-07T12:12:36.916Z,95495.00
2023-01-07T12:16:40.028Z,95490.00
2023-01-07T12:21:04.982Z,95496.00
2023-01-07T12:25:24.630Z,95490.00
2023-01-07T12:29:41.177Z,95479.00
2023-01-07T12:34:02.250Z,95475.00
2023-01-07T12:38:11.457Z,95479.00
2023-01-07T12:42:19.830Z,95474.00
2023-01-07T12:46:24.715Z,95479.00
2023-01-07T12:50:32.878Z,95476.00
2023-01-07T12:54:45.888Z,95488.00
2023-01-07T12:58:54.889Z,95482.00
2023-01-07T13:03:04.867Z,95476.00
2023-01-07T13:07:15.809Z,95471.00
2023-01-07T13:11:44.143Z,95481.00
2023-01-07T13:15:49.496Z,95467.00
2023-01-07T13:19:52.303Z,95463.00
2023-01-07T13:24:07.621Z,95468.00
2023-01-07T13:28:38.359Z,95471.00
2023-01-07T13:32:55.361Z,95474.00
2023-01-07T13:37:17.142Z,95476.00
2023-01-07T13:41:47.940Z,95469.00
2023-01-07T13:45:56.190Z,95474.00
2023-01-07T13:50:02.857Z,95472.00
2023-01-07T13:54:11.661Z,95471.00
2023-01-07T13:58:36.751Z,95468.00
2023-01-07T14:02:56.383Z,95463.00
2023-01-07T14:07:02.431Z,95468.00
2023-01-07T14:11:05.960Z,95470.00
2023-01-07T14:15:43.690Z,95463.00
2023-01-07T14:19:50.762Z,95460.00
2023-01-07T14:24:06.702Z,95475.00
2023-01-07T14:28:33.155Z,95468.00
2023-01-07T14:32:37.533Z,95472.00
2023-01-07T14:37:14.895Z,95472.00
2023-01-07T14:41:20.381Z,95474.00
2023-01-07T14:45:56.868Z,95476.00
2023-01-07T14:50:21.805Z,95468.00
2023-01-07T14:54:42.931Z,95474.00
2023-01-07T14:59:16.589Z,95461.00
2023-01-07T15:03:50.775Z,95463.00
2023-01-07T15:08:20.635Z,95467.00
2023-01-07T15:12:48.562Z,95468.00
2023-01-07T15:16:54.868Z,95461.00
2023-01-07T15:21:05.349Z,95465.00
2023-01-07T15:25:18.419Z,95463.00
2023-01-07T15:29:30.079Z,95458.00
2023-01-07T15:33:50.014Z,95463.00
2023-01-07T15:37:53.291Z,95458.00
2023-01-07T15:41:57.124Z,95452.00
2023-01-07T15:46:02.348Z,95464.00
2023-01-07T15:50:28.048Z,95465.00
2023-01-07T15:54:35.904Z,95454.00
2023-01-07T15:58:41.163Z,95465.00
2023-01-07T16:02:45.686Z,95450.00
2023-01-07T16:06:50.041Z,95430.00
2023-01-07T16:11:00.718Z,95417.00
2023-01-07T16:15:05.215Z,95432.00
2023-01-07T16:19:17.443Z,95436.00
2023-01-07T16:23:24.736Z,95442.00
2023-01-07T16:27:31.020Z,95437.00
2023-01-07T16:31:35.650Z,95431.00
2023-01-07T16:35:40.009Z,95430.00
2023-01-07T16:39:47.333Z,95434.00
2023-01-07T16:43:52.375Z,95434.00
2023-01-07T16:48:19.600Z,95430.00
2023-01-07T16:52:26.680Z,95439.00
2023-01-07T16:56:31.301Z,95439.00
2023-01-07T17:00:34.328Z,95448.00
2023-01-07T17:04:37.584Z,95454.00
2023-01-07T17:08:40.773Z,95458.00
2023-01-07T17:12:57.679Z,95441.00
2023-01-07T17:17:01.288Z,95446.00
2023-01-07T17:21:04.226Z,95437.00
2023-01-07T17:25:10.788Z,95430.00
2023-01-07T17:29:19.160Z,95429.00
2023-01-07T17:33:24.552Z,95426.00
2023-01-07T17:37:27.999Z,95432.00
2023-01-07T17:41:56.870Z,95425.00
2023-01-07T17:46:01.342Z,95422.00
2023-01-07T17:50:04.300Z,95431.00
2023-01-07T17:54:07.767Z,95433.00
2023-01-07T17:58:20.045Z,95440.00
2023-01-07T18:02:29.464Z,95444.00
2023-01-07T18:06:34.955Z,95437.00
2023-01-07T18:10:51.927Z,95429.00
2023-01-07T18:14:55.349Z,95425.00
2023-01-07T18:18:59.599Z,95433.00
2023-01-07T18:23:02.427Z,95431.00
2023-01-07T18:27:05.340Z,95434.00
2023-01-07T18:31:08.249Z,95440.00
2023-01-07T18:35:12.970Z,95437.00
2023-01-07T18:39:19.134Z,95448.00
2023-01-07T18:43:22.786Z,95431.00
2023-01-07T18:47:25.572Z,95428.00
2023-01-07T18:51:29.780Z,95417.00
2023-01-07T18:55:32.655Z,95425.00
2023-01-07T18:59:35.497Z,95413.00
2023-01-07T19:03:38.747Z,95422.00
2023-01-07T19:07:43.397Z,95415.00
2023-01-07T19:11:46.322Z,95417.00
2023-01-07T19:15:50.235Z,95412.00
2023-01-07T19:19:53.066Z,95414.00
2023-01-07T19:23:57.223Z,95421.00
2023-01-07T19:28:00.092Z,95412.00
2023-01-07T19:32:03.153Z,95406.00
2023-01-07T19:36:09.251Z,95410.00
2023-01-07T19:40:14.215Z,95417.00
2023-01-07T19:44:17.282Z,95411.00
2023-01-07T19:48:20.325Z,95403.00
2023-01-07T19:52:23.256Z,95412.00
2023-01-07T19:56:28.062Z,95407.00
2023-01-07T20:00:30.906Z,95391.00
2023-01-07T20:04:33.684Z,95384.00
2023-01-07T20:08:36.963Z,95375.00
2023-01-07T20:12:41.178Z,95372.00
2023-01-07T20:16:44.081Z,95380.00
2023-01-07T20:20:56.106Z,95365.00
2023-01-07T20:24:58.943Z,95371.00
2023-01-07T20:29:03.291Z,95364.00
2023-01-07T20:33:06.091Z,95362.00
2023-01-07T20:37:08.923Z,95350.00
2023-01-07T20:41:14.457Z,95343.00
2023-01-07T20:45:18.975Z,95356.00
2023-01-07T20:49:23.204Z,95346.00
2023-01-07T20:53:28.504Z,95342.00
2023-01-07T20:57:31.507Z,95337.00
2023-01-07T21:01:35.729Z,95335.00
2023-01-07T21:05:38.953Z,95331.00
2023-01-07T21:09:43.405Z,95330.00
2023-01-07T21:13:46.470Z,95321.00
2023-01-07T21:17:53.769Z,95315.00
2023-01-07T21:21:56.603Z,95309.00
2023-01-07T21:25:59.404Z,95297.00
2023-01-07T21:30:04.961Z,95307.00
2023-01-07T21:34:11.470Z,95293.00
2023-01-07T21:38:15.293Z,95292.00
2023-01-07T21:42:18.622Z,95289.00
2023-01-07T21:46:22.506Z,95282.00
2023-01-07T21:50:26.906Z,95286.00
2023-01-07T21:54:29.783Z,95289.00
2023-01-07T21:58:32.639Z,95284.00
2023-01-07T22:02:35.589Z,95289.00
2023-01-07T22:06:39.792Z,95279.00
2023-01-07T22:10:48.975Z,95288.00
2023-01-07T22:14:52.446Z,95286.00
2023-01-07T22:18:55.791Z,95285.00
2023-01-07T22:23:00.065Z,95291.00
2023-01-07T22:27:03.076Z,95278.00
2023-01-07T22:31:11.643Z,95296.00
2023-01-07T22:35:14.515Z,95298.00
2023-01-07T22:39:21.914Z,95301.00
2023-01-07T22:43:26.177Z,95295.00
2023-01-07T22:47:36.044Z,95295.00
2023-01-07T22:51:45.149Z,95284.00
2023-01-07T22:55:49.726Z,95278.00
2023-01-07T22:59:52.599Z,95282.00
2023-01-07T23:03:55.513Z,95272.00
2023-01-07T23:07:58.782Z,95272.00
2023-01-07T23:12:03.766Z,95254.00
2023-01-07T23:16:07.632Z,95258.00
2023-01-07T23:20:11.027Z,95250.00
2023-01-07T23:24:14.691Z,95254.00
2023-01-07T23:28:19.936Z,95242.00
2023-01-07T23:32:22.798Z,95223.00
2023-01-07T23:36:25.843Z,95224.00
2023-01-07T23:40:28.791Z,95214.00
2023-01-07T23:44:32.961Z,95232.00
2023-01-07T23:48:37.774Z,95226.00
2023-01-07T23:52:40.817Z,95206.00
2023-01-07T23:56:43.659Z,95187.00
